createdAt,value
2018-02-11T00:00:17.485Z,8.03
2018-02-11T00:02:44.982Z,8.03
2018-02-11T00:05:13.288Z,8.27
2018-02-11T00:07:40.774Z,8.93
2018-02-11T00:10:08.264Z,7.67
2018-02-11T00:12:36.525Z,8.17
2018-02-11T00:15:04.037Z,7.97
2018-02-11T00:17:31.506Z,7.63
2018-02-11T00:19:59.056Z,7.50
2018-02-11T00:22:26.555Z,8.10
2018-02-11T00:24:54.058Z,7.43
2018-02-11T00:27:22.286Z,7.70
2018-02-11T00:29:49.749Z,7.40
2018-02-11T00:32:17.229Z,7.10
2018-02-11T00:34:45.518Z,7.90
2018-02-11T00:37:13.827Z,9.30
2018-02-11T00:39:41.359Z,8.80
2018-02-11T00:42:09.613Z,8.90
2018-02-11T00:44:37.124Z,9.10
2018-02-11T00:47:04.634Z,8.40
2018-02-11T00:49:33.042Z,8.80
2018-02-11T00:52:01.317Z,8.67
2018-02-11T00:54:29.554Z,8.60
2018-02-11T00:56:57.868Z,8.20
2018-02-11T00:59:26.118Z,7.77
2018-02-11T01:01:53.619Z,8.03
2018-02-11T01:04:21.930Z,7.93
2018-02-11T01:06:49.414Z,8.23
2018-02-11T01:09:16.959Z,8.27
2018-02-11T01:11:45.225Z,7.83
2018-02-11T01:14:12.827Z,8.57
2018-02-11T01:16:40.323Z,8.40
2018-02-11T01:19:07.807Z,7.67
2018-02-11T01:21:35.356Z,7.67
2018-02-11T01:24:02.815Z,7.20
2018-02-11T01:26:30.318Z,8.10
2018-02-11T01:28:58.618Z,7.87
2018-02-11T01:31:26.110Z,7.90
2018-02-11T01:33:54.551Z,8.13
2018-02-11T01:36:23.128Z,7.60
2018-02-11T01:38:50.724Z,7.20
2018-02-11T01:41:19.014Z,7.40
2018-02-11T01:43:47.270Z,8.47
2018-02-11T01:46:16.116Z,8.30
2018-02-11T01:48:44.419Z,7.90
2018-02-11T01:51:12.673Z,7.77
2018-02-11T01:53:40.390Z,8.90
2018-02-11T01:56:08.719Z,8.40
2018-02-11T01:58:37.023Z,9.87
2018-02-11T02:01:04.575Z,8.63
2018-02-11T02:03:32.120Z,9.33
2018-02-11T02:05:59.639Z,9.27
2018-02-11T02:08:27.133Z,9.47
2018-02-11T02:10:55.368Z,9.00
2018-02-11T02:13:22.892Z,10.00
2018-02-11T02:15:50.402Z,9.77
2018-02-11T02:18:17.905Z,9.80
2018-02-11T02:20:45.406Z,10.80
2018-02-11T02:23:12.898Z,9.97
2018-02-11T02:25:41.158Z,10.30
2018-02-11T02:28:08.698Z,10.80
2018-02-11T02:30:36.954Z,12.13
2018-02-11T02:33:04.433Z,12.23
2018-02-11T02:35:32.708Z,12.77
2018-02-11T02:38:00.962Z,12.80
2018-02-11T02:40:28.511Z,13.00
2018-02-11T02:42:56.014Z,13.90
2018-02-11T02:45:24.323Z,13.17
2018-02-11T02:47:51.853Z,13.93
2018-02-11T02:50:20.107Z,13.83
2018-02-11T02:52:47.641Z,12.77
2018-02-11T02:55:15.962Z,13.10
2018-02-11T02:57:44.217Z,13.87
2018-02-11T03:00:11.831Z,14.23
2018-02-11T03:02:39.340Z,13.17
2018-02-11T03:05:06.847Z,12.73
2018-02-11T03:07:34.351Z,11.77
2018-02-11T03:10:02.331Z,12.00
2018-02-11T03:12:29.820Z,11.20
2018-02-11T03:14:58.082Z,10.80
2018-02-11T03:17:26.326Z,11.40
2018-02-11T03:19:54.623Z,11.60
2018-02-11T03:22:22.109Z,9.17
2018-02-11T03:24:50.364Z,10.80
2018-02-11T03:27:17.875Z,11.70
2018-02-11T03:29:45.374Z,12.00
2018-02-11T03:32:12.926Z,13.33
2018-02-11T03:34:40.442Z,12.47
2018-02-11T03:37:07.938Z,14.47
2018-02-11T03:39:36.219Z,14.20
2018-02-11T03:42:04.548Z,14.80
2018-02-11T03:44:32.099Z,15.37
2018-02-11T03:46:59.591Z,15.63
2018-02-11T03:49:27.125Z,15.77
2018-02-11T03:51:55.429Z,15.73
2018-02-11T03:54:22.908Z,16.03
2018-02-11T03:56:51.158Z,16.17
2018-02-11T03:59:18.641Z,16.43
2018-02-11T04:01:46.928Z,16.23
2018-02-11T04:04:15.229Z,15.70
2018-02-11T04:06:42.734Z,16.73
2018-02-11T04:09:10.216Z,13.83
2018-02-11T04:11:38.492Z,13.40
2018-02-11T04:14:05.973Z,14.10
2018-02-11T04:16:34.249Z,13.63
2018-02-11T04:19:02.584Z,14.27
2018-02-11T04:21:30.821Z,14.20
2018-02-11T04:23:58.326Z,13.73
2018-02-11T04:26:25.947Z,13.70
2018-02-11T04:28:53.472Z,12.80
2018-02-11T04:31:21.730Z,13.53
2018-02-11T04:33:49.232Z,12.97
2018-02-11T04:36:16.805Z,13.67
2018-02-11T04:38:44.278Z,16.80
2018-02-11T04:41:12.534Z,14.77
2018-02-11T04:43:40.048Z,15.87
2018-02-11T04:46:07.617Z,14.50
2018-02-11T04:48:35.274Z,14.70
2018-02-11T04:51:02.778Z,16.40
2018-02-11T04:53:30.285Z,17.70
2018-02-11T04:55:57.890Z,17.70
2018-02-11T04:58:25.393Z,18.37
2018-02-11T05:00:53.748Z,19.47
2018-02-11T05:03:21.309Z,18.60
2018-02-11T05:05:48.919Z,19.30
2018-02-11T05:08:16.872Z,17.70
2018-02-11T05:10:44.388Z,19.47
2018-02-11T05:13:11.885Z,18.37
2018-02-11T05:15:40.160Z,18.03
2018-02-11T05:18:08.416Z,16.50
2018-02-11T05:20:35.946Z,20.37
2018-02-11T05:23:04.215Z,18.43
2018-02-11T05:25:31.696Z,20.27
2018-02-11T05:27:59.231Z,17.50
2018-02-11T05:30:26.744Z,17.60
2018-02-11T05:32:55.081Z,15.43
2018-02-11T05:35:23.338Z,15.63
2018-02-11T05:37:50.953Z,14.50
2018-02-11T05:40:18.447Z,17.73
2018-02-11T05:42:46.029Z,19.07
2018-02-11T05:45:13.533Z,16.93
2018-02-11T05:47:41.095Z,18.10
2018-02-11T05:50:08.563Z,17.17
2018-02-11T05:52:36.094Z,16.47
2018-02-11T05:55:04.347Z,15.17
2018-02-11T05:57:31.819Z,15.37
2018-02-11T06:00:00.124Z,15.10
2018-02-11T06:02:27.625Z,14.20
2018-02-11T06:04:55.883Z,13.97
2018-02-11T06:07:23.362Z,13.70
2018-02-11T06:09:50.904Z,12.83
2018-02-11T06:12:19.292Z,12.90
2018-02-11T06:14:47.571Z,12.23
2018-02-11T06:17:15.841Z,11.70
2018-02-11T06:19:44.117Z,13.03
2018-02-11T06:22:12.373Z,13.37
2018-02-11T06:24:39.847Z,14.77
2018-02-11T06:27:07.336Z,13.03
2018-02-11T06:29:34.861Z,13.87
2018-02-11T06:32:02.368Z,14.67
2018-02-11T06:34:29.868Z,12.93
2018-02-11T06:36:57.371Z,13.00
2018-02-11T06:39:25.660Z,12.37
2018-02-11T06:41:53.176Z,12.20
2018-02-11T06:44:20.737Z,11.97
2018-02-11T06:46:48.224Z,13.30
2018-02-11T06:49:16.473Z,12.23
2018-02-11T06:51:43.973Z,13.37
2018-02-11T06:54:11.463Z,11.80
2018-02-11T06:56:39.722Z,11.90
2018-02-11T06:59:07.205Z,12.97
2018-02-11T07:01:35.494Z,12.10
2018-02-11T07:04:03.042Z,12.70
2018-02-11T07:06:31.399Z,11.10
2018-02-11T07:08:58.909Z,11.50
2018-02-11T07:11:26.404Z,10.83
2018-02-11T07:13:53.978Z,10.40
2018-02-11T07:16:21.455Z,11.30
2018-02-11T07:18:49.720Z,11.93
2018-02-11T07:21:17.189Z,11.30
2018-02-11T07:23:45.424Z,10.30
2018-02-11T07:26:13.735Z,11.77
2018-02-11T07:28:41.226Z,11.00
2018-02-11T07:31:09.753Z,9.60
2018-02-11T07:33:38.105Z,10.47
2018-02-11T07:36:05.713Z,10.00
2018-02-11T07:38:33.260Z,10.87
2018-02-11T07:41:00.837Z,13.53
2018-02-11T07:43:28.333Z,12.13
2018-02-11T07:45:55.973Z,11.63
2018-02-11T07:48:24.212Z,12.17
2018-02-11T07:50:52.469Z,11.37
2018-02-11T07:53:19.980Z,11.93
2018-02-11T08:04:40.597Z,2.30
2018-02-11T08:07:08.837Z,2.60
2018-02-11T08:25:30.346Z,3.20
2018-02-11T08:27:57.963Z,3.10
2018-02-11T08:30:25.428Z,3.20
2018-02-11T08:32:52.893Z,4.07
2018-02-11T08:35:21.141Z,4.47
2018-02-11T08:37:48.773Z,5.60
2018-02-11T08:40:16.333Z,4.45
2018-02-11T08:42:43.788Z,5.87
2018-02-11T08:45:57.439Z,4.37
2018-02-11T08:49:30.368Z,4.60
2018-02-11T08:51:34.492Z,4.50
2018-02-11T08:53:38.612Z,4.73
2018-02-11T08:55:42.009Z,4.30
2018-02-11T08:57:46.157Z,4.90
2018-02-11T08:59:50.206Z,4.67
2018-02-11T09:01:54.433Z,4.30
2018-02-11T09:03:58.462Z,4.40
2018-02-11T09:16:42.104Z,3.97
2018-02-11T09:42:32.519Z,8.00
2018-02-11T09:44:36.686Z,8.30
2018-02-11T09:46:39.999Z,7.80
2018-02-11T09:48:43.283Z,9.03
2018-02-11T09:50:46.579Z,7.37
2018-02-11T09:52:50.702Z,7.40
2018-02-11T09:54:54.769Z,7.27
2018-02-11T09:56:58.890Z,6.30
2018-02-11T09:59:03.000Z,7.50
2018-02-11T10:01:07.048Z,7.17
2018-02-11T10:03:11.093Z,6.70
2018-02-11T10:05:14.394Z,8.33
2018-02-11T10:07:17.756Z,8.30
2018-02-11T10:09:21.790Z,7.63
2018-02-11T10:11:25.874Z,6.87
2018-02-11T10:13:29.940Z,6.27
2018-02-11T10:15:33.282Z,7.40
2018-02-11T10:17:36.622Z,6.30
2018-02-11T10:19:42.078Z,6.63
2018-02-11T10:21:45.358Z,7.33
2018-02-11T10:23:48.659Z,7.50
2018-02-11T10:25:51.972Z,6.87
2018-02-11T10:27:56.068Z,6.63
2018-02-11T10:29:59.399Z,7.23
2018-02-11T10:32:02.799Z,7.27
2018-02-11T10:34:06.133Z,6.40
2018-02-11T10:36:10.207Z,7.80
2018-02-11T10:38:13.541Z,6.77
2018-02-11T10:40:16.931Z,6.87
2018-02-11T10:42:20.195Z,6.47
2018-02-11T10:44:23.548Z,6.83
2018-02-11T10:46:27.678Z,6.67
2018-02-11T10:48:30.951Z,6.93
2018-02-11T10:50:34.981Z,6.20
2018-02-11T10:52:38.283Z,6.60
2018-02-11T10:54:41.670Z,6.50
2018-02-11T10:56:45.009Z,5.77
2018-02-11T10:58:48.339Z,5.57
2018-02-11T11:00:52.463Z,5.07
2018-02-11T11:02:55.732Z,5.97
2018-02-11T11:04:59.864Z,5.97
2018-02-11T11:07:03.151Z,6.83
2018-02-11T11:09:07.197Z,7.23
2018-02-11T11:11:11.271Z,7.40
2018-02-11T11:13:15.311Z,5.70
2018-02-11T11:15:19.554Z,6.00
2018-02-11T11:17:23.017Z,7.13
2018-02-11T11:19:26.314Z,6.10
2018-02-11T11:21:30.447Z,5.93
2018-02-11T11:23:33.793Z,6.83
2018-02-11T11:25:37.104Z,7.27
2018-02-11T11:27:40.452Z,6.47
2018-02-11T11:29:44.745Z,6.90
2018-02-11T11:31:48.071Z,7.00
2018-02-11T11:33:52.254Z,6.53
2018-02-11T11:35:56.567Z,5.87
2018-02-11T11:37:59.863Z,6.13
2018-02-11T11:40:03.252Z,6.67
2018-02-11T11:42:07.275Z,5.93
2018-02-11T11:44:10.658Z,6.87
2018-02-11T11:46:13.922Z,5.83
2018-02-11T11:48:18.061Z,7.53
2018-02-11T11:50:21.351Z,8.97
2018-02-11T11:52:24.675Z,6.40
2018-02-11T11:54:28.718Z,6.67
2018-02-11T11:56:32.045Z,6.53
2018-02-11T11:58:35.353Z,6.93
2018-02-11T12:00:38.603Z,6.10
2018-02-11T12:02:43.923Z,5.80
2018-02-11T12:04:47.376Z,5.87
2018-02-11T12:06:50.744Z,6.77
2018-02-11T12:08:54.926Z,6.50
2018-02-11T12:10:58.424Z,6.57
2018-02-11T12:13:01.855Z,5.73
2018-02-11T12:15:05.934Z,6.33
2018-02-11T12:17:09.279Z,6.03
2018-02-11T12:19:12.652Z,4.77
2018-02-11T12:21:16.751Z,6.13
2018-02-11T12:23:28.293Z,6.43
2018-02-11T12:25:32.430Z,7.37
2018-02-11T12:27:35.782Z,6.80
2018-02-11T12:29:40.232Z,5.67
2018-02-11T12:31:44.400Z,5.97
2018-02-11T12:33:47.836Z,6.83
2018-02-11T12:35:51.232Z,5.70
2018-02-11T12:37:54.705Z,6.57
2018-02-11T12:39:58.149Z,5.63
2018-02-11T12:42:01.578Z,5.93
2018-02-11T12:44:05.019Z,6.07
2018-02-11T12:46:08.399Z,6.07
2018-02-11T12:48:12.590Z,6.17
2018-02-11T12:50:15.941Z,6.00
2018-02-11T12:52:20.126Z,6.83
2018-02-11T12:54:23.499Z,4.53
2018-02-11T12:56:27.659Z,6.13
2018-02-11T12:58:32.088Z,6.00
2018-02-11T13:00:36.197Z,5.90
2018-02-11T13:02:40.606Z,6.80
2018-02-11T13:04:45.764Z,7.10
2018-02-11T13:06:50.916Z,5.97
2018-02-11T13:08:55.403Z,5.43
2018-02-11T13:10:58.711Z,6.07
2018-02-11T13:13:02.761Z,5.93
2018-02-11T13:15:06.882Z,6.03
2018-02-11T13:17:10.903Z,4.90
2018-02-11T13:19:14.188Z,6.03
2018-02-11T13:21:18.300Z,5.40
2018-02-11T13:23:21.565Z,5.10
2018-02-11T13:25:24.932Z,6.27
2018-02-11T13:27:28.967Z,6.17
2018-02-11T13:29:33.109Z,6.73
2018-02-11T13:31:36.447Z,6.30
2018-02-11T13:33:40.557Z,5.40
2018-02-11T13:35:44.589Z,6.53
2018-02-11T13:37:47.869Z,6.90
2018-02-11T13:39:51.147Z,6.10
2018-02-11T13:41:55.492Z,6.57
2018-02-11T13:43:58.917Z,5.03
2018-02-11T13:46:02.432Z,4.90
2018-02-11T13:48:05.810Z,6.30
2018-02-11T13:50:09.145Z,7.47
2018-02-11T13:52:12.448Z,5.80
2018-02-11T13:54:15.759Z,6.23
2018-02-11T13:56:19.826Z,5.80
2018-02-11T13:58:23.887Z,5.50
2018-02-11T14:00:28.947Z,5.40
2018-02-11T14:02:32.216Z,6.23
2018-02-11T14:04:36.241Z,6.00
2018-02-11T14:06:39.530Z,5.83
2018-02-11T14:08:42.803Z,5.67
2018-02-11T14:10:46.858Z,6.27
2018-02-11T14:12:53.748Z,6.10
2018-02-11T14:14:57.799Z,6.23
2018-02-11T14:17:01.839Z,5.63
2018-02-11T14:19:05.163Z,6.27
2018-02-11T14:21:09.191Z,6.17
2018-02-11T14:23:12.485Z,5.73
2018-02-11T14:25:38.532Z,5.60
2018-02-11T14:27:51.028Z,5.57
2018-02-11T14:29:58.668Z,5.70
2018-02-11T14:32:02.031Z,5.33
2018-02-11T14:34:06.184Z,5.23
2018-02-11T14:36:10.296Z,4.43
2018-02-11T14:38:14.465Z,5.80
2018-02-11T14:40:17.833Z,5.13
2018-02-11T14:42:21.267Z,4.90
2018-02-11T14:44:25.579Z,4.77
2018-02-11T14:46:28.968Z,5.20
2018-02-11T14:48:33.133Z,4.70
2018-02-11T14:50:36.622Z,4.30
2018-02-11T14:52:40.764Z,4.13
2018-02-11T14:54:45.178Z,4.33
2018-02-11T14:56:48.699Z,3.87
2018-02-11T14:58:52.260Z,4.10
2018-02-11T15:00:57.592Z,4.10
2018-02-11T15:03:02.037Z,4.70
2018-02-11T15:05:06.408Z,3.70
2018-02-11T15:13:50.015Z,3.40
2018-02-11T15:15:53.351Z,4.10
2018-02-11T15:17:56.623Z,4.27
2018-02-11T15:19:59.942Z,4.03
2018-02-11T15:22:03.222Z,3.53
2018-02-11T15:24:07.554Z,4.20
2018-02-11T15:26:11.192Z,3.40
2018-02-11T15:28:14.513Z,3.77
2018-02-11T15:30:17.886Z,3.50
2018-02-11T15:32:21.364Z,3.83
2018-02-11T15:34:27.544Z,3.63
2018-02-11T15:36:30.847Z,3.60
2018-02-11T15:38:34.210Z,3.60
2018-02-11T15:40:41.591Z,4.30
2018-02-11T15:42:45.668Z,4.50
2018-02-11T15:44:49.792Z,3.70
2018-02-11T15:46:53.084Z,4.37
2018-02-11T15:48:57.249Z,4.37
2018-02-11T15:51:00.535Z,4.13
2018-02-11T15:53:03.875Z,4.00
2018-02-11T15:55:07.913Z,4.63
2018-02-11T15:57:11.955Z,3.20
2018-02-11T15:59:15.228Z,4.17
2018-02-11T16:01:19.302Z,3.50
2018-02-11T16:03:22.576Z,3.20
2018-02-11T16:05:26.656Z,3.80
2018-02-11T16:07:30.041Z,3.83
2018-02-11T16:09:33.298Z,4.00
2018-02-11T16:11:36.594Z,3.83
2018-02-11T16:13:40.710Z,3.60
2018-02-11T16:15:44.178Z,4.00
2018-02-11T16:17:48.303Z,4.40
2018-02-11T16:19:51.687Z,3.70
2018-02-11T16:21:55.015Z,3.57
2018-02-11T16:23:59.065Z,3.83
2018-02-11T16:26:03.171Z,3.80
2018-02-11T16:28:06.546Z,3.90
2018-02-11T16:30:10.584Z,3.77
2018-02-11T16:32:14.865Z,4.33
2018-02-11T16:34:18.151Z,4.00
2018-02-11T16:36:21.474Z,3.67
2018-02-11T16:38:24.846Z,4.03
2018-02-11T16:40:29.620Z,4.17
2018-02-11T16:42:32.958Z,3.67
2018-02-11T16:44:37.951Z,4.07
2018-02-11T16:46:42.584Z,4.03
2018-02-11T16:48:46.062Z,3.83
2018-02-11T16:50:50.250Z,3.77
2018-02-11T16:52:54.466Z,4.10
2018-02-11T16:54:58.878Z,4.53
2018-02-11T16:57:02.500Z,4.30
2018-02-11T16:59:06.791Z,4.80
2018-02-11T17:01:10.182Z,4.37
2018-02-11T17:03:13.525Z,3.80
2018-02-11T17:05:16.911Z,3.30
2018-02-11T17:07:20.245Z,4.10
2018-02-11T17:09:23.756Z,3.57
2018-02-11T17:11:27.260Z,4.07
2018-02-11T17:13:31.412Z,4.00
2018-02-11T17:15:35.720Z,3.97
2018-02-11T17:17:39.138Z,4.53
2018-02-11T17:19:42.494Z,4.53
2018-02-11T17:21:46.591Z,4.43
2018-02-11T17:23:50.044Z,4.37
2018-02-11T17:25:53.407Z,4.10
2018-02-11T17:27:56.829Z,4.67
2018-02-11T17:30:00.280Z,3.97
2018-02-11T17:32:03.647Z,3.13
2018-02-11T17:34:06.946Z,4.13
2018-02-11T17:36:10.276Z,4.23
2018-02-11T17:38:13.551Z,3.50
2018-02-11T17:40:17.637Z,5.00
2018-02-11T17:42:20.979Z,4.77
2018-02-11T17:44:24.369Z,3.57
2018-02-11T17:46:28.400Z,3.40
2018-02-11T17:48:31.720Z,4.13
2018-02-11T17:50:35.057Z,4.00
2018-02-11T17:52:38.407Z,3.80
2018-02-11T17:54:41.754Z,3.33
2018-02-11T17:56:45.823Z,3.50
2018-02-11T17:58:49.207Z,3.77
2018-02-11T18:00:52.482Z,3.87
2018-02-11T18:02:56.514Z,3.70
2018-02-11T18:04:59.874Z,3.57
2018-02-11T18:07:03.247Z,3.30
2018-02-11T18:09:06.641Z,3.60
2018-02-11T18:11:09.981Z,3.30
2018-02-11T18:13:14.026Z,3.37
2018-02-11T18:15:18.082Z,4.67
2018-02-11T18:17:22.222Z,5.07
2018-02-11T18:19:25.593Z,3.93
2018-02-11T18:21:29.685Z,4.53
2018-02-11T18:23:33.612Z,4.83
2018-02-11T18:25:37.673Z,3.50
2018-02-11T18:27:41.719Z,3.87
2018-02-11T18:29:45.858Z,3.50
2018-02-11T18:31:49.129Z,4.40
2018-02-11T18:33:52.494Z,4.30
2018-02-11T18:35:55.783Z,4.73
2018-02-11T18:37:59.816Z,4.50
2018-02-11T18:40:03.900Z,4.60
2018-02-11T18:42:07.217Z,4.43
2018-02-11T18:44:10.557Z,4.70
2018-02-11T18:46:20.113Z,4.40
2018-02-11T18:48:24.268Z,4.60
2018-02-11T18:50:27.795Z,4.57
2018-02-11T18:52:31.960Z,4.40
2018-02-11T18:54:35.276Z,3.37
2018-02-11T18:56:39.491Z,4.67
2018-02-11T18:58:43.562Z,5.20
2018-02-11T19:00:47.686Z,5.33
2018-02-11T19:02:50.971Z,4.10
2018-02-11T19:04:54.215Z,4.37
2018-02-11T19:06:57.601Z,3.80
2018-02-11T19:09:01.631Z,4.80
2018-02-11T19:11:04.924Z,4.60
2018-02-11T19:13:08.273Z,4.97
2018-02-11T19:15:12.341Z,4.47
2018-02-11T19:17:16.416Z,5.80
2018-02-11T19:19:20.534Z,5.03
2018-02-11T19:21:23.884Z,5.40
2018-02-11T19:23:27.946Z,5.37
2018-02-11T19:25:31.291Z,3.90
2018-02-11T19:27:34.590Z,4.20
2018-02-11T19:29:38.647Z,5.13
2018-02-11T19:31:41.993Z,4.43
2018-02-11T19:33:45.418Z,4.97
2018-02-11T19:35:48.913Z,5.27
2018-02-11T19:37:53.001Z,4.90
2018-02-11T19:39:56.558Z,5.43
2018-02-11T19:41:59.874Z,4.47
2018-02-11T19:44:03.244Z,4.27
2018-02-11T19:46:07.405Z,4.20
2018-02-11T19:48:11.483Z,4.60
2018-02-11T19:50:14.864Z,3.93
2018-02-11T19:52:18.168Z,4.23
2018-02-11T19:54:21.563Z,3.63
2018-02-11T19:56:25.218Z,3.60
2018-02-11T19:58:29.316Z,4.10
2018-02-11T20:00:33.391Z,3.60
2018-02-11T20:02:36.689Z,3.70
2018-02-11T20:04:40.104Z,3.70
2018-02-11T20:06:44.156Z,4.07
2018-02-11T20:08:48.389Z,3.40
2018-02-11T20:10:52.436Z,3.50
2018-02-11T20:12:56.721Z,3.33
2018-02-11T20:15:00.063Z,3.93
2018-02-11T20:17:03.387Z,3.13
2018-02-11T20:19:07.622Z,3.90
2018-02-11T20:21:10.937Z,3.60
2018-02-11T20:23:15.237Z,3.17
2018-02-11T20:25:19.443Z,3.50
2018-02-11T20:27:22.717Z,2.93
2018-02-11T20:29:26.844Z,2.80
2018-02-11T20:31:30.246Z,3.33
2018-02-11T20:33:33.563Z,3.17
2018-02-11T20:35:37.604Z,4.20
2018-02-11T20:37:40.893Z,3.67
2018-02-11T20:39:44.302Z,4.10
2018-02-11T20:41:48.425Z,3.63
2018-02-11T20:43:52.456Z,3.90
2018-02-11T20:45:55.774Z,3.93
2018-02-11T20:48:00.112Z,3.37
2018-02-11T20:50:04.218Z,3.30
2018-02-11T20:52:07.508Z,3.23
2018-02-11T20:54:11.097Z,3.77
2018-02-11T20:56:15.190Z,2.77
2018-02-11T20:58:18.566Z,4.00
2018-02-11T21:00:21.906Z,3.60
2018-02-11T21:02:25.300Z,3.10
2018-02-11T21:04:28.643Z,3.30
2018-02-11T21:06:31.992Z,3.07
2018-02-11T21:08:35.247Z,2.90
2018-02-11T21:10:38.626Z,2.80
2018-02-11T21:12:41.876Z,2.63
2018-02-11T21:14:45.260Z,3.40
2018-02-11T21:16:48.599Z,2.70
2018-02-11T21:18:52.695Z,3.30
2018-02-11T21:20:56.840Z,2.37
2018-02-11T21:23:00.163Z,2.77
2018-02-11T21:25:04.278Z,2.20
2018-02-11T21:27:07.594Z,2.20
2018-02-11T21:29:10.915Z,2.07
2018-02-11T21:31:14.206Z,2.17
2018-02-11T21:33:17.468Z,1.70
2018-02-11T21:35:20.842Z,2.47
2018-02-11T21:37:24.190Z,1.73
2018-02-11T21:39:27.483Z,1.77
2018-02-11T21:41:31.004Z,1.60
2018-02-11T21:43:36.203Z,2.00
2018-02-11T21:45:39.588Z,1.90
2018-02-11T21:47:43.717Z,2.10
2018-02-11T21:49:46.985Z,2.23
2018-02-11T21:51:51.044Z,2.27
2018-02-11T21:53:55.087Z,2.33
2018-02-11T21:55:58.466Z,2.00
2018-02-11T21:58:02.580Z,1.90
2018-02-11T22:00:05.837Z,2.20
2018-02-11T22:02:09.129Z,2.03
2018-02-11T22:04:12.469Z,1.70
2018-02-11T22:06:15.851Z,2.23
2018-02-11T22:08:19.116Z,2.17
2018-02-11T22:10:23.215Z,1.73
2018-02-11T22:12:26.559Z,2.37
2018-02-11T22:14:29.900Z,2.17
2018-02-11T22:16:33.331Z,1.90
2018-02-11T22:18:36.593Z,2.20
2018-02-11T22:20:39.971Z,1.60
2018-02-11T22:22:43.364Z,1.90
2018-02-11T22:24:46.742Z,2.00
2018-02-11T22:26:50.833Z,1.80
2018-02-11T22:28:54.835Z,1.80
2018-02-11T22:30:58.165Z,2.00
2018-02-11T22:33:02.222Z,2.13
2018-02-11T22:35:06.289Z,1.70
2018-02-11T22:37:09.630Z,1.80
2018-02-11T22:39:12.895Z,1.50
2018-02-11T22:41:16.197Z,1.73
2018-02-11T22:43:20.238Z,1.80
2018-02-11T22:45:23.568Z,1.93
2018-02-11T22:47:26.857Z,1.70
2018-02-11T22:49:30.877Z,1.90
2018-02-11T22:51:34.267Z,1.60
2018-02-11T22:53:37.605Z,2.13
2018-02-11T22:55:41.639Z,1.97
2018-02-11T22:57:45.009Z,2.30
2018-02-11T22:59:48.363Z,2.17
2018-02-11T23:01:51.744Z,1.70
2018-02-11T23:03:55.002Z,2.23
2018-02-11T23:05:58.334Z,2.30
2018-02-11T23:08:01.640Z,2.40
2018-02-11T23:10:05.021Z,2.27
2018-02-11T23:12:08.295Z,2.10
2018-02-11T23:14:11.568Z,2.27
2018-02-11T23:16:14.850Z,2.33
2018-02-11T23:18:18.115Z,2.70
2018-02-11T23:20:22.197Z,1.97
2018-02-11T23:22:25.520Z,2.17
2018-02-11T23:24:29.547Z,2.27
2018-02-11T23:26:32.832Z,2.93
2018-02-11T23:28:36.120Z,2.67
2018-02-11T23:30:40.240Z,2.60
2018-02-11T23:32:44.349Z,2.67
2018-02-11T23:34:47.603Z,2.37
2018-02-11T23:36:50.939Z,2.73
2018-02-11T23:38:54.424Z,2.37
2018-02-11T23:40:57.928Z,2.50
2018-02-11T23:43:01.191Z,2.67
2018-02-11T23:45:04.535Z,2.50
2018-02-11T23:47:07.827Z,2.37
2018-02-11T23:49:11.195Z,2.60
2018-02-11T23:51:15.210Z,2.20
2018-02-11T23:53:18.599Z,2.43
2018-02-11T23:55:22.673Z,2.60
2018-02-11T23:57:25.993Z,2.47
2018-02-11T23:59:30.087Z,2.50
